createdAt,value
2019-04-21T00:01:00.386Z,60.55
2019-04-21T00:01:57.719Z,59.88
2019-04-21T00:03:00.679Z,59.49
2019-04-21T00:04:07.402Z,59.40
2019-04-21T00:05:17.270Z,59.05
2019-04-21T00:06:15.600Z,57.90
2019-04-21T00:07:15.997Z,60.19
2019-04-21T00:08:24.665Z,60.55
2019-04-21T00:09:19.148Z,59.40
2019-04-21T00:10:23.029Z,60.26
2019-04-21T00:11:16.063Z,58.73
2019-04-21T00:12:15.272Z,59.11
2019-04-21T00:13:12.319Z,60.16
2019-04-21T00:14:07.506Z,60.35
2019-04-21T00:15:07.391Z,60.74
2019-04-21T00:16:02.389Z,61.41
2019-04-21T00:17:02.841Z,61.28
2019-04-21T00:18:00.455Z,61.66
2019-04-21T00:19:01.129Z,61.85
2019-04-21T00:20:05.542Z,62.24
2019-04-21T00:20:58.004Z,62.14
2019-04-21T00:22:07.632Z,62.81
2019-04-21T00:23:13.088Z,63.19
2019-04-21T00:24:08.619Z,63.10
2019-04-21T00:25:09.423Z,62.87
2019-04-21T00:26:07.095Z,63.07
2019-04-21T00:27:10.947Z,62.78
2019-04-21T00:28:21.948Z,64.02
2019-04-21T00:29:21.055Z,63.45
2019-04-21T00:30:15.841Z,62.97
2019-04-21T00:31:09.862Z,63.45
2019-04-21T00:32:11.463Z,64.31
2019-04-21T00:33:04.570Z,64.31
2019-04-21T00:33:55.002Z,64.22
2019-04-21T00:35:02.548Z,64.88
2019-04-21T00:36:02.084Z,65.64
2019-04-21T00:37:03.155Z,66.38
2019-04-21T00:38:15.379Z,65.23
2019-04-21T00:39:20.950Z,66.19
2019-04-21T00:40:16.612Z,65.52
2019-04-21T00:41:13.455Z,66.28
2019-04-21T00:42:09.799Z,65.90
2019-04-21T00:43:13.319Z,65.80
2019-04-21T00:44:04.525Z,65.42
2019-04-21T00:45:10.775Z,65.71
2019-04-21T00:46:03.451Z,66.00
2019-04-21T00:47:08.452Z,64.94
2019-04-21T00:48:16.930Z,64.28
2019-04-21T00:49:05.908Z,64.50
2019-04-21T00:50:12.787Z,63.83
2019-04-21T00:51:31.503Z,64.88
2019-04-21T00:52:24.656Z,65.26
2019-04-21T00:53:19.614Z,64.85
2019-04-21T00:54:19.684Z,63.45
2019-04-21T00:56:18.225Z,62.68
2019-04-21T00:57:22.227Z,62.87
2019-04-21T00:58:18.404Z,62.30
2019-04-21T00:59:13.846Z,62.78
2019-04-21T01:00:11.839Z,62.97
2019-04-21T01:01:16.227Z,62.87
2019-04-21T01:02:12.727Z,63.07
2019-04-21T01:03:14.470Z,61.92
2019-04-21T01:04:12.234Z,61.44
2019-04-21T01:05:16.645Z,62.21
2019-04-21T01:06:19.114Z,62.11
2019-04-21T01:07:12.458Z,61.38
2019-04-21T01:08:13.157Z,61.09
2019-04-21T01:09:09.500Z,61.35
2019-04-21T01:10:06.332Z,60.42
2019-04-21T01:11:15.319Z,61.38
2019-04-21T01:12:15.541Z,60.61
2019-04-21T01:13:17.953Z,61.38
2019-04-21T01:14:12.013Z,60.99
2019-04-21T01:15:22.688Z,62.01
2019-04-21T01:16:14.126Z,63.45
2019-04-21T01:17:12.991Z,64.98
2019-04-21T01:18:12.938Z,63.70
2019-04-21T01:19:14.431Z,64.37
2019-04-21T01:20:01.191Z,66.28
2019-04-21T01:20:50.060Z,66.38
2019-04-21T01:21:49.986Z,67.11
2019-04-21T01:22:49.911Z,67.87
2019-04-21T01:23:50.744Z,68.63
2019-04-21T01:25:00.044Z,70.16
2019-04-21T01:26:00.567Z,70.16
2019-04-21T01:27:02.361Z,69.08
2019-04-21T01:28:03.922Z,70.22
2019-04-21T01:29:10.429Z,71.94
2019-04-21T01:30:14.712Z,72.13
2019-04-21T01:31:12.422Z,70.13
2019-04-21T01:32:14.583Z,70.79
2019-04-21T01:33:17.389Z,68.79
2019-04-21T01:34:12.945Z,68.88
2019-04-21T01:35:10.102Z,69.56
2019-04-21T01:36:08.421Z,71.27
2019-04-21T01:37:08.782Z,71.08
2019-04-21T01:38:15.076Z,70.70
2019-04-21T01:39:18.104Z,71.56
2019-04-21T01:40:16.880Z,71.66
2019-04-21T01:41:13.206Z,71.46
2019-04-21T01:42:11.352Z,71.75
2019-04-21T01:43:10.181Z,72.86
2019-04-21T01:44:09.456Z,73.52
2019-04-21T01:45:04.386Z,72.67
2019-04-21T01:46:05.540Z,73.33
2019-04-21T01:47:03.082Z,73.52
2019-04-21T01:48:06.504Z,73.14
2019-04-21T01:49:01.887Z,73.91
2019-04-21T01:49:59.055Z,74.01
2019-04-21T01:51:07.570Z,74.06
2019-04-21T01:52:17.825Z,75.34
2019-04-21T01:53:11.515Z,75.40
2019-04-21T01:54:11.190Z,75.30
2019-04-21T01:55:08.299Z,76.64
2019-04-21T01:56:09.295Z,75.59
2019-04-21T01:57:11.374Z,75.78
2019-04-21T01:58:02.265Z,75.49
2019-04-21T01:58:57.622Z,75.49
2019-04-21T01:59:58.859Z,75.30
2019-04-21T02:01:00.846Z,74.82
2019-04-21T02:02:06.677Z,75.59
2019-04-21T02:03:31.470Z,75.49
2019-04-21T02:04:11.733Z,76.73
2019-04-21T02:05:12.410Z,77.36
2019-04-21T02:06:14.940Z,76.92
2019-04-21T02:07:11.542Z,76.88
2019-04-21T02:08:05.419Z,77.93
2019-04-21T02:09:04.886Z,75.36
2019-04-21T02:10:11.693Z,76.50
2019-04-21T02:11:15.657Z,76.35
2019-04-21T02:12:10.565Z,77.20
2019-04-21T02:13:05.454Z,76.44
2019-04-21T02:14:12.963Z,76.06
2019-04-21T02:15:11.528Z,75.68
2019-04-21T02:16:07.937Z,77.20
2019-04-21T02:17:07.658Z,77.93
2019-04-21T02:18:07.565Z,77.55
2019-04-21T02:19:04.430Z,77.36
2019-04-21T02:20:00.003Z,77.26
2019-04-21T02:20:55.322Z,77.36
2019-04-21T02:22:00.870Z,78.22
2019-04-21T02:24:17.130Z,78.41
2019-04-21T02:25:11.293Z,79.46
2019-04-21T02:26:09.715Z,79.60
2019-04-21T02:27:07.629Z,79.41
2019-04-21T02:28:13.500Z,79.60
2019-04-21T02:29:12.781Z,80.18
2019-04-21T02:30:14.575Z,80.27
2019-04-21T02:32:18.364Z,80.75
2019-04-21T02:33:18.546Z,80.84
2019-04-21T02:35:25.496Z,80.27
2019-04-21T02:38:27.629Z,80.36
2019-04-21T02:39:23.077Z,79.89
2019-04-21T02:40:11.325Z,81.51
2019-04-21T02:41:15.746Z,81.70
2019-04-21T02:42:08.154Z,81.70
2019-04-21T02:43:22.917Z,81.32
2019-04-21T02:44:16.680Z,82.84
2019-04-21T02:45:17.709Z,82.18
2019-04-21T02:46:27.129Z,81.79
2019-04-21T02:47:24.207Z,82.32
2019-04-21T02:48:34.929Z,82.80
2019-04-21T02:49:22.056Z,82.61
2019-04-21T02:50:22.411Z,82.90
2019-04-21T02:52:27.428Z,82.90
2019-04-21T02:53:20.337Z,82.80
2019-04-21T02:55:06.451Z,83.47
2019-04-21T02:56:20.545Z,83.75
2019-04-21T02:57:15.643Z,83.47
2019-04-21T02:58:18.729Z,82.70
2019-04-21T03:00:20.461Z,83.09
2019-04-21T03:01:25.355Z,83.56
2019-04-21T03:02:35.024Z,84.42
2019-04-21T03:03:17.206Z,84.52
2019-04-21T03:04:26.290Z,83.94
2019-04-21T03:06:12.868Z,84.56
2019-04-21T03:07:13.322Z,84.95
2019-04-21T03:08:14.344Z,85.33
2019-04-21T03:09:18.280Z,84.76
2019-04-21T03:10:12.541Z,85.71
2019-04-21T03:11:14.096Z,85.71
2019-04-21T03:12:22.689Z,85.52
2019-04-21T03:13:13.834Z,86.28
2019-04-21T03:14:16.789Z,86.09
2019-04-21T03:15:15.630Z,86.85
2019-04-21T03:17:14.282Z,87.13
2019-04-21T03:18:18.626Z,87.28
2019-04-21T03:19:16.002Z,87.47
2019-04-21T03:22:14.253Z,87.09
2019-04-21T03:24:29.449Z,87.04
2019-04-21T03:26:19.817Z,86.57
2019-04-21T03:27:25.832Z,86.47
2019-04-21T03:28:13.915Z,86.94
2019-04-21T03:29:11.945Z,87.66
2019-04-21T03:30:52.834Z,87.09
2019-04-21T03:33:59.489Z,86.43
2019-04-21T03:37:16.816Z,86.24
2019-04-21T03:38:16.747Z,86.80
2019-04-21T03:39:04.618Z,87.09
2019-04-21T03:40:22.155Z,87.95
2019-04-21T03:41:12.753Z,87.47
2019-04-21T03:42:18.858Z,86.90
2019-04-21T03:44:14.434Z,88.61
2019-04-21T03:45:12.637Z,88.33
2019-04-21T03:46:08.193Z,88.13
2019-04-21T03:48:09.279Z,90.14
2019-04-21T03:49:19.333Z,88.90
2019-04-21T03:51:15.999Z,88.61
2019-04-21T03:52:11.399Z,88.80
2019-04-21T03:53:11.495Z,89.09
2019-04-21T03:54:13.736Z,88.42
2019-04-21T03:55:33.994Z,88.13
2019-04-21T03:56:46.957Z,88.71
2019-04-21T03:58:47.054Z,88.13
2019-04-21T03:59:16.538Z,87.85
2019-04-21T04:00:36.489Z,88.13
2019-04-21T04:01:32.882Z,88.13
2019-04-21T04:02:23.007Z,88.90
2019-04-21T04:05:19.998Z,88.61
2019-04-21T04:06:20.568Z,88.80
2019-04-21T04:07:39.716Z,88.61
2019-04-21T04:08:33.401Z,88.61
2019-04-21T04:09:25.748Z,88.52
2019-04-21T04:10:34.809Z,88.61
2019-04-21T04:11:33.670Z,88.42
2019-04-21T04:13:37.629Z,88.71
2019-04-21T04:14:29.248Z,89.75
2019-04-21T04:15:31.473Z,90.00
2019-04-21T04:16:20.226Z,89.71
2019-04-21T04:17:23.449Z,89.52
2019-04-21T04:18:31.948Z,89.61
2019-04-21T04:19:18.801Z,90.00
2019-04-21T04:22:23.381Z,89.09
2019-04-21T04:23:42.154Z,89.47
2019-04-21T04:24:24.083Z,88.80
2019-04-21T04:25:19.193Z,88.71
2019-04-21T04:27:33.695Z,90.14
2019-04-21T04:28:25.731Z,90.04
2019-04-21T04:29:20.354Z,89.52
2019-04-21T04:31:31.303Z,89.85
2019-04-21T04:33:30.725Z,89.56
2019-04-21T04:35:21.499Z,88.90
2019-04-21T04:37:30.714Z,89.09
2019-04-21T04:39:36.525Z,89.09
2019-04-21T04:40:10.874Z,89.66
2019-04-21T04:41:22.283Z,89.75
2019-04-21T04:44:11.098Z,89.66
2019-04-21T04:45:17.605Z,89.85
2019-04-21T04:47:10.302Z,89.94
2019-04-21T04:48:09.218Z,90.14
2019-04-21T04:49:10.970Z,89.47
2019-04-21T04:50:17.826Z,89.75
2019-04-21T04:51:01.909Z,90.70
2019-04-21T04:52:19.195Z,90.80
2019-04-21T04:53:14.104Z,91.18
2019-04-21T04:54:05.173Z,91.08
2019-04-21T04:56:16.356Z,90.66
2019-04-21T04:59:29.984Z,90.99
2019-04-21T05:00:25.775Z,90.61
2019-04-21T05:01:14.153Z,90.70
2019-04-21T05:02:15.134Z,90.70
2019-04-21T05:03:00.979Z,90.42
2019-04-21T05:04:10.141Z,90.61
2019-04-21T05:06:10.322Z,92.03
2019-04-21T05:07:07.100Z,92.13
2019-04-21T05:08:07.537Z,92.32
2019-04-21T05:09:07.837Z,91.85
2019-04-21T05:10:07.932Z,92.13
2019-04-21T05:11:20.721Z,92.13
2019-04-21T05:13:14.284Z,92.61
2019-04-21T05:14:11.718Z,92.99
2019-04-21T05:16:09.915Z,92.70
2019-04-21T05:17:02.225Z,92.66
2019-04-21T05:18:30.740Z,93.41
2019-04-21T05:19:10.239Z,92.70
2019-04-21T05:20:08.572Z,92.61
2019-04-21T05:21:16.059Z,93.27
2019-04-21T05:22:05.258Z,93.46
2019-04-21T05:22:59.786Z,92.70
2019-04-21T05:23:51.229Z,92.80
2019-04-21T05:24:53.749Z,92.41
2019-04-21T05:25:48.473Z,92.51
2019-04-21T05:26:47.912Z,92.32
2019-04-21T05:27:47.268Z,92.32
2019-04-21T05:28:47.551Z,92.22
2019-04-21T05:29:59.918Z,92.70
2019-04-21T05:30:57.764Z,92.51
2019-04-21T05:32:00.451Z,92.22
2019-04-21T05:33:10.759Z,93.46
2019-04-21T05:33:57.729Z,93.23
2019-04-21T05:34:57.052Z,92.65
2019-04-21T05:35:55.210Z,92.18
2019-04-21T05:36:52.039Z,92.18
2019-04-21T05:37:53.813Z,92.08
2019-04-21T05:38:50.248Z,93.51
2019-04-21T05:39:49.257Z,92.89
2019-04-21T05:40:47.262Z,93.23
2019-04-21T05:41:45.544Z,93.89
2019-04-21T05:42:52.939Z,93.89
2019-04-21T05:43:54.533Z,93.37
2019-04-21T05:44:59.924Z,93.13
2019-04-21T05:46:02.600Z,93.04
2019-04-21T05:48:52.165Z,91.51
2019-04-21T05:49:49.879Z,91.80
2019-04-21T05:50:49.539Z,90.37
2019-04-21T05:51:44.350Z,89.94
2019-04-21T05:52:46.197Z,89.65
2019-04-21T05:53:55.652Z,90.80
2019-04-21T05:54:57.307Z,90.70
2019-04-21T05:55:56.990Z,89.75
2019-04-21T05:56:48.839Z,88.99
2019-04-21T05:57:54.618Z,89.56
2019-04-21T05:58:48.443Z,89.08
2019-04-21T05:59:53.698Z,88.89
2019-04-21T06:01:06.115Z,88.60
2019-04-21T06:02:02.556Z,88.65
2019-04-21T06:02:57.683Z,89.41
2019-04-21T06:03:57.599Z,90.17
2019-04-21T06:06:14.058Z,89.03
2019-04-21T06:06:59.876Z,88.08
2019-04-21T06:07:53.985Z,88.08
2019-04-21T06:08:52.509Z,87.60
2019-04-21T06:09:57.128Z,87.23
2019-04-21T06:10:54.223Z,86.94
2019-04-21T06:11:51.210Z,86.03
2019-04-21T06:13:02.387Z,85.84
2019-04-21T06:13:55.451Z,86.79
2019-04-21T06:14:54.788Z,86.12
2019-04-21T06:15:56.202Z,85.55
2019-04-21T06:19:22.515Z,85.17
2019-04-21T06:20:20.967Z,84.64
2019-04-21T06:25:16.266Z,86.55
2019-04-21T06:26:17.926Z,85.31
2019-04-21T06:27:04.306Z,84.45
2019-04-21T06:27:55.080Z,83.88
2019-04-21T06:28:50.375Z,82.49
2019-04-21T06:30:57.898Z,79.06
2019-04-21T06:32:16.311Z,80.96
2019-04-21T06:32:49.222Z,79.06
2019-04-21T06:39:44.808Z,81.20
2019-04-21T06:40:37.357Z,82.06
2019-04-21T06:41:58.410Z,82.06
2019-04-21T06:42:35.479Z,79.77
2019-04-21T06:43:40.451Z,79.86
2019-04-21T06:44:33.208Z,80.91
2019-04-21T06:45:39.955Z,80.72
2019-04-21T06:46:35.550Z,80.91
2019-04-21T06:47:42.174Z,78.91
2019-04-21T06:48:37.511Z,78.28
2019-04-21T06:49:25.141Z,78.47
2019-04-21T06:53:46.971Z,77.80
2019-04-21T06:54:34.200Z,79.36
2019-04-21T06:55:34.121Z,80.99
2019-04-21T06:56:39.691Z,82.23
2019-04-21T06:57:34.757Z,81.09
2019-04-21T06:58:32.932Z,78.99
2019-04-21T06:59:37.212Z,78.99
2019-04-21T07:00:31.604Z,79.65
2019-04-21T07:01:37.811Z,82.04
2019-04-21T07:02:50.688Z,79.75
2019-04-21T07:03:34.651Z,79.69
2019-04-21T07:04:36.794Z,79.79
2019-04-21T07:05:38.867Z,80.74
2019-04-21T07:06:40.395Z,81.89
2019-04-21T07:07:27.933Z,80.93
2019-04-21T07:08:37.044Z,80.46
2019-04-21T07:09:31.180Z,79.60
2019-04-21T07:10:35.096Z,79.98
2019-04-21T07:11:30.566Z,82.08
2019-04-21T07:12:27.521Z,79.60
2019-04-21T07:13:27.534Z,79.88
2019-04-21T07:15:30.470Z,80.50
2019-04-21T07:16:31.743Z,78.11
2019-04-21T07:17:46.993Z,76.57
2019-04-21T07:18:37.043Z,75.62
2019-04-21T07:19:35.177Z,75.62
2019-04-21T07:20:29.761Z,75.81
2019-04-21T07:21:34.261Z,78.05
2019-04-21T07:22:30.233Z,75.62
2019-04-21T07:23:32.207Z,73.55
2019-04-21T07:24:35.440Z,74.32
2019-04-21T07:25:35.745Z,80.06
2019-04-21T07:26:29.611Z,76.14
2019-04-21T07:27:35.324Z,74.80
2019-04-21T07:28:31.555Z,70.34
2019-04-21T07:29:34.486Z,69.09
2019-04-21T07:30:38.003Z,68.55
2019-04-21T07:31:34.749Z,66.74
2019-04-21T07:32:49.687Z,63.99
2019-04-21T07:33:52.377Z,63.13
2019-04-21T07:34:33.500Z,63.16
2019-04-21T07:35:31.820Z,60.57
2019-04-21T07:36:38.313Z,60.31
2019-04-21T07:37:33.213Z,58.84
2019-04-21T07:38:27.630Z,60.03
2019-04-21T07:39:27.750Z,61.08
2019-04-21T07:40:23.181Z,59.45
2019-04-21T07:41:18.505Z,58.42
2019-04-21T07:42:24.393Z,58.81
2019-04-21T07:43:28.508Z,56.70
2019-04-21T07:44:24.009Z,55.93
2019-04-21T07:45:23.023Z,56.98
2019-04-21T07:46:22.368Z,55.10
2019-04-21T07:47:31.410Z,54.80
2019-04-21T07:48:27.473Z,55.64
2019-04-21T07:49:25.187Z,53.72
2019-04-21T07:50:28.647Z,53.75
2019-04-21T07:51:33.946Z,53.05
2019-04-21T07:52:28.358Z,53.46
2019-04-21T07:53:38.646Z,54.04
2019-04-21T07:54:37.344Z,54.13
2019-04-21T07:56:11.956Z,53.85
2019-04-21T07:57:23.766Z,54.90
2019-04-21T07:58:26.664Z,55.99
2019-04-21T07:59:40.872Z,53.85
2019-04-21T08:00:35.870Z,54.80
2019-04-21T08:02:28.317Z,55.02
2019-04-21T08:03:26.577Z,53.58
2019-04-21T08:04:49.558Z,53.30
2019-04-21T08:05:27.937Z,52.53
2019-04-21T08:06:28.322Z,52.34
2019-04-21T08:07:30.743Z,51.67
2019-04-21T08:08:21.104Z,52.05
2019-04-21T08:09:29.434Z,53.20
2019-04-21T08:10:24.248Z,53.80
2019-04-21T08:11:19.684Z,54.28
2019-04-21T08:12:20.267Z,54.86
2019-04-21T08:13:34.498Z,54.67
2019-04-21T08:14:28.625Z,53.80
2019-04-21T08:15:30.959Z,53.80
2019-04-21T08:16:28.459Z,53.42
2019-04-21T08:17:23.946Z,52.08
2019-04-21T08:18:28.812Z,53.52
2019-04-21T08:19:26.289Z,54.38
2019-04-21T08:20:24.170Z,53.03
2019-04-21T08:21:27.955Z,53.03
2019-04-21T08:22:27.196Z,51.79
2019-04-21T08:23:29.414Z,50.63
2019-04-21T08:24:19.721Z,52.46
2019-04-21T08:25:27.341Z,53.03
2019-04-21T08:26:24.734Z,55.24
2019-04-21T08:27:32.164Z,53.23
2019-04-21T08:28:28.978Z,50.34
2019-04-21T08:29:33.089Z,51.04
2019-04-21T08:30:26.253Z,50.37
2019-04-21T08:31:32.253Z,52.29
2019-04-21T08:32:31.688Z,52.29
2019-04-21T08:33:33.717Z,51.53
2019-04-21T08:34:29.951Z,51.43
2019-04-21T08:35:40.881Z,53.16
2019-04-21T08:36:27.178Z,50.66
2019-04-21T08:37:26.020Z,52.10
2019-04-21T08:38:20.373Z,49.22
2019-04-21T08:39:20.020Z,49.72
2019-04-21T08:40:42.409Z,49.43
2019-04-21T08:41:23.084Z,51.35
2019-04-21T08:42:25.678Z,49.15
2019-04-21T08:43:30.695Z,48.47
2019-04-21T08:44:25.809Z,48.38
2019-04-21T08:46:24.951Z,48.57
2019-04-21T08:47:28.465Z,48.88
2019-04-21T08:48:25.383Z,46.77
2019-04-21T08:49:22.259Z,48.40
2019-04-21T08:50:21.119Z,48.40
2019-04-21T08:51:27.945Z,47.53
2019-04-21T08:52:37.699Z,48.30
2019-04-21T08:53:26.039Z,46.19
2019-04-21T08:54:28.049Z,46.57
2019-04-21T08:55:25.329Z,46.67
2019-04-21T08:56:25.040Z,45.90
2019-04-21T08:57:21.539Z,45.51
2019-04-21T08:59:27.815Z,43.78
2019-04-21T09:00:26.391Z,44.17
2019-04-21T09:01:25.833Z,43.78
2019-04-21T09:02:23.127Z,44.48
2019-04-21T09:03:25.499Z,44.57
2019-04-21T09:04:26.156Z,43.90
2019-04-21T09:05:19.174Z,44.57
2019-04-21T09:06:22.215Z,44.86
2019-04-21T09:07:29.085Z,44.98
2019-04-21T09:08:21.665Z,43.41
2019-04-21T09:09:27.866Z,42.55
2019-04-21T09:10:16.927Z,43.71
2019-04-21T09:11:18.831Z,43.90
2019-04-21T09:13:17.537Z,45.75
2019-04-21T09:14:20.653Z,43.15
2019-04-21T09:16:49.132Z,42.19
2019-04-21T09:17:44.985Z,42.96
2019-04-21T09:18:45.625Z,39.59
2019-04-21T09:20:13.868Z,38.06
2019-04-21T09:20:52.217Z,39.39
2019-04-21T09:21:55.196Z,39.51
2019-04-21T09:22:55.675Z,37.58
2019-04-21T09:23:50.957Z,36.79
2019-04-21T09:24:53.590Z,35.64
2019-04-21T09:25:55.450Z,36.33
2019-04-21T09:26:52.292Z,36.61
2019-04-21T09:27:53.705Z,36.02
2019-04-21T09:28:46.611Z,38.93
2019-04-21T09:29:39.380Z,38.74
2019-04-21T09:30:39.609Z,38.64
2019-04-21T09:31:38.001Z,37.87
2019-04-21T09:32:34.876Z,36.43
2019-04-21T09:33:37.724Z,34.69
2019-04-21T09:34:36.927Z,34.59
2019-04-21T09:35:33.466Z,35.00
2019-04-21T09:36:40.280Z,34.80
2019-04-21T09:37:40.937Z,34.61
2019-04-21T09:38:38.255Z,35.19
2019-04-21T09:41:06.700Z,36.63
2019-04-21T09:42:05.069Z,34.03
2019-04-21T09:43:09.409Z,34.52
2019-04-21T09:44:08.354Z,36.25
2019-04-21T09:45:06.277Z,36.63
2019-04-21T09:46:04.027Z,36.06
2019-04-21T09:47:06.772Z,36.25
2019-04-21T09:48:10.160Z,35.86
2019-04-21T09:49:07.399Z,35.40
2019-04-21T09:50:05.199Z,34.92
2019-04-21T09:51:03.986Z,32.21
2019-04-21T09:52:08.888Z,32.39
2019-04-21T09:53:16.873Z,31.81
2019-04-21T09:54:08.756Z,31.72
2019-04-21T10:02:09.659Z,33.37
2019-04-21T10:03:08.196Z,35.02
2019-04-21T10:05:38.423Z,31.83
2019-04-21T10:06:37.663Z,30.77
2019-04-21T10:07:41.956Z,31.45
2019-04-21T10:08:38.619Z,31.45
2019-04-21T10:09:37.723Z,32.31
2019-04-21T10:10:38.404Z,31.63
2019-04-21T10:11:37.634Z,31.17
2019-04-21T10:12:37.432Z,30.96
2019-04-21T10:13:37.169Z,30.67
2019-04-21T10:14:37.099Z,30.77
2019-04-21T10:15:37.669Z,31.45
2019-04-21T10:16:36.960Z,30.10
2019-04-21T10:17:37.503Z,30.00
2019-04-21T10:18:37.914Z,29.90
2019-04-21T10:19:36.750Z,30.10
2019-04-21T10:20:36.680Z,31.35
2019-04-21T10:21:38.007Z,30.98
2019-04-21T10:22:37.241Z,31.27
2019-04-21T10:23:36.467Z,31.94
2019-04-21T10:24:36.397Z,31.85
2019-04-21T10:26:33.837Z,30.40
2019-04-21T10:27:34.873Z,29.14
2019-04-21T10:28:35.052Z,30.30
2019-04-21T10:29:35.826Z,30.30
2019-04-21T10:30:34.751Z,30.21
2019-04-21T10:31:34.553Z,31.46
2019-04-21T10:32:34.463Z,31.85
2019-04-21T10:33:34.485Z,30.88
2019-04-21T10:34:33.263Z,30.30
2019-04-21T10:35:33.192Z,30.01
2019-04-21T10:36:33.261Z,29.53
2019-04-21T10:37:45.470Z,31.17
2019-04-21T10:38:40.070Z,31.27
2019-04-21T10:39:33.675Z,32.23
2019-04-21T10:40:35.286Z,32.43
2019-04-21T10:41:33.079Z,31.37
2019-04-21T10:42:33.204Z,29.53
2019-04-21T10:43:33.476Z,30.59
2019-04-21T10:44:32.551Z,29.05
2019-04-21T10:45:32.837Z,29.05
2019-04-21T10:46:33.003Z,31.27
2019-04-21T10:47:32.343Z,32.23
2019-04-21T10:48:34.565Z,31.17
2019-04-21T10:49:32.770Z,32.04
2019-04-21T10:50:32.123Z,31.75
2019-04-21T10:51:32.882Z,30.01
2019-04-21T10:52:34.030Z,32.64
2019-04-21T10:53:31.928Z,32.33
2019-04-21T10:54:49.191Z,33.60
2019-04-21T10:55:45.039Z,32.24
2019-04-21T10:56:37.979Z,32.64
2019-04-21T10:57:32.654Z,31.88
2019-04-21T10:58:32.175Z,32.36
2019-04-21T10:59:31.483Z,31.31
2019-04-21T11:00:32.373Z,31.22
2019-04-21T11:01:31.560Z,31.22
2019-04-21T11:02:31.268Z,29.75
2019-04-21T11:03:31.200Z,30.91
2019-04-21T11:04:35.187Z,29.96
2019-04-21T11:05:32.394Z,29.09
2019-04-21T11:06:31.058Z,30.43
2019-04-21T11:07:46.373Z,28.98
2019-04-21T11:08:37.558Z,30.05
2019-04-21T11:09:33.971Z,31.51
2019-04-21T11:10:31.889Z,30.73
2019-04-21T11:15:57.115Z,29.59
2019-04-21T11:16:56.606Z,30.75
2019-04-21T11:17:56.162Z,29.86
2019-04-21T11:18:56.097Z,29.38
2019-04-21T11:19:57.024Z,31.22
2019-04-21T11:20:55.970Z,30.46
2019-04-21T11:21:56.840Z,30.85
2019-04-21T11:22:55.818Z,29.78
2019-04-21T11:23:56.494Z,30.17
2019-04-21T11:24:56.696Z,29.01
2019-04-21T11:25:55.840Z,29.50
2019-04-21T11:26:55.909Z,30.96
2019-04-21T11:27:55.474Z,30.38
2019-04-21T11:28:59.015Z,30.76
2019-04-21T11:29:55.756Z,29.30
2019-04-21T11:30:55.271Z,28.33
2019-04-21T11:31:55.202Z,28.72
2019-04-21T11:32:55.310Z,28.92
2019-04-21T11:33:55.393Z,30.58
2019-04-21T11:34:54.999Z,29.03
2019-04-21T11:35:55.203Z,29.16
2019-04-21T11:36:56.048Z,28.32
2019-04-21T11:38:04.569Z,28.83
2019-04-21T11:39:08.576Z,28.34
2019-04-21T11:40:00.100Z,26.82
2019-04-21T11:40:55.847Z,25.34
2019-04-21T11:41:54.530Z,25.25
2019-04-21T11:42:55.605Z,26.00
2019-04-21T11:44:57.535Z,26.43
2019-04-21T11:45:58.056Z,25.82
2019-04-21T11:46:56.780Z,27.29
2019-04-21T11:47:56.715Z,27.39
2019-04-21T11:48:57.923Z,25.64
2019-04-21T11:49:57.075Z,26.72
2019-04-21T11:50:57.321Z,26.65
2019-04-21T11:51:56.646Z,26.55
2019-04-21T11:52:56.870Z,24.71
2019-04-21T11:53:56.913Z,25.99
2019-04-21T11:54:56.278Z,26.79
2019-04-21T11:56:52.780Z,24.44
2019-04-21T11:57:53.106Z,26.36
2019-04-21T11:58:49.881Z,25.41
2019-04-21T11:59:51.430Z,26.58
2019-04-21T12:01:46.000Z,24.44
2019-04-21T12:02:45.929Z,24.34
2019-04-21T12:03:45.868Z,27.08
2019-04-21T12:04:45.808Z,26.54
2019-04-21T12:05:45.749Z,25.08
2019-04-21T12:06:47.620Z,25.47
2019-04-21T12:07:45.629Z,24.89
2019-04-21T12:08:49.122Z,25.48
2019-04-21T12:09:45.768Z,25.51
2019-04-21T12:10:45.454Z,25.32
2019-04-21T12:11:45.418Z,23.55
2019-04-21T12:12:45.479Z,24.26
2019-04-21T12:13:45.874Z,24.65
2019-04-21T12:14:45.930Z,23.46
2019-04-21T12:15:45.173Z,24.23
2019-04-21T12:16:45.102Z,23.35
2019-04-21T12:17:45.943Z,22.94
2019-04-21T12:18:45.161Z,23.83
2019-04-21T12:19:46.164Z,24.35
2019-04-21T12:20:45.141Z,24.00
2019-04-21T12:21:53.085Z,23.50
2019-04-21T12:22:45.320Z,24.05
2019-04-21T12:23:44.903Z,23.49
2019-04-21T12:24:44.997Z,23.39
2019-04-21T12:25:45.297Z,23.30
2019-04-21T12:26:44.801Z,22.53
2019-04-21T12:27:45.715Z,21.72
2019-04-21T12:28:45.871Z,21.99
2019-04-21T12:29:44.351Z,22.56
2019-04-21T12:30:45.277Z,22.76
2019-04-21T12:31:45.419Z,22.86
2019-04-21T12:32:44.358Z,23.17
2019-04-21T12:33:44.153Z,23.75
2019-04-21T12:34:44.113Z,22.79
2019-04-21T12:35:44.005Z,22.61
2019-04-21T12:36:43.950Z,23.90
2019-04-21T12:37:44.781Z,22.55
2019-04-21T12:38:50.882Z,20.20
2019-04-21T12:39:45.037Z,20.38
2019-04-21T12:40:44.351Z,19.80
2019-04-21T12:41:44.628Z,21.15
2019-04-21T12:42:44.145Z,21.95
2019-04-21T12:43:44.530Z,20.68
2019-04-21T12:44:43.567Z,20.18
2019-04-21T12:45:44.126Z,21.67
2019-04-21T12:46:43.636Z,23.14
2019-04-21T12:47:44.036Z,20.78
2019-04-21T12:48:44.248Z,20.98
2019-04-21T12:49:43.684Z,23.34
2019-04-21T12:50:43.749Z,21.84
2019-04-21T12:51:44.070Z,22.03
2019-04-21T12:52:43.042Z,22.05
2019-04-21T12:53:43.486Z,21.06
2019-04-21T12:54:43.951Z,21.44
2019-04-21T12:55:46.032Z,22.03
2019-04-21T12:56:43.358Z,21.46
2019-04-21T12:57:43.533Z,22.06
2019-04-21T12:58:43.545Z,20.67
2019-04-21T12:59:42.749Z,22.06
2019-04-21T13:00:42.922Z,22.07
2019-04-21T13:01:43.103Z,21.00
2019-04-21T13:02:43.537Z,20.48
2019-04-21T13:03:43.709Z,21.84
2019-04-21T13:04:42.371Z,22.83
2019-04-21T13:05:43.416Z,22.05
2019-04-21T13:06:43.471Z,20.87
2019-04-21T13:07:43.623Z,20.40
2019-04-21T13:08:51.820Z,21.57
2019-04-21T13:09:42.159Z,20.90
2019-04-21T13:10:42.341Z,20.53
2019-04-21T13:11:43.423Z,22.97
2019-04-21T13:12:41.925Z,20.51
2019-04-21T13:13:42.091Z,19.41
2019-04-21T13:14:42.175Z,19.31
2019-04-21T13:15:43.236Z,19.90
2019-04-21T13:16:41.702Z,19.90
2019-04-21T13:17:44.457Z,18.92
2019-04-21T13:18:41.813Z,19.71
2019-04-21T13:19:41.535Z,19.81
2019-04-21T13:20:42.294Z,19.03
2019-04-21T13:21:42.336Z,19.63
2019-04-21T13:22:41.950Z,19.51
2019-04-21T13:23:41.313Z,19.70
2019-04-21T13:24:42.111Z,20.89
2019-04-21T13:25:41.662Z,21.08
2019-04-21T13:26:48.386Z,20.50
2019-04-21T13:27:41.093Z,20.69
2019-04-21T13:28:41.036Z,20.17
2019-04-21T13:29:41.955Z,20.66
2019-04-21T13:30:42.198Z,20.77
2019-04-21T13:31:40.922Z,20.50
2019-04-21T13:32:40.851Z,19.39
2019-04-21T13:33:41.956Z,19.88
2019-04-21T13:34:42.008Z,19.00
2019-04-21T13:35:41.305Z,19.70
2019-04-21T13:36:41.414Z,20.27
2019-04-21T13:37:41.499Z,20.38
2019-04-21T13:38:49.190Z,20.68
2019-04-21T13:40:04.843Z,20.40
2019-04-21T13:40:59.929Z,18.84
2019-04-21T13:41:49.393Z,18.46
2019-04-21T13:42:46.055Z,18.37
2019-04-21T13:43:41.300Z,19.15
2019-04-21T13:44:41.329Z,19.34
2019-04-21T13:45:41.557Z,19.54
2019-04-21T13:46:40.663Z,19.05
2019-04-21T13:47:40.776Z,19.31
2019-04-21T13:48:40.365Z,19.87
2019-04-21T13:49:41.386Z,19.20
2019-04-21T13:50:39.803Z,19.38
2019-04-21T13:51:39.746Z,20.35
2019-04-21T13:52:40.759Z,19.78
2019-04-21T13:53:39.962Z,20.77
2019-04-21T13:54:39.855Z,21.18
2019-04-21T13:55:40.755Z,19.81
2019-04-21T13:56:40.604Z,19.15
2019-04-21T13:57:40.804Z,19.34
2019-04-21T13:58:40.154Z,20.42
2019-04-21T13:59:40.335Z,20.03
2019-04-21T14:00:39.996Z,19.92
2019-04-21T14:01:39.670Z,20.29
2019-04-21T14:02:40.661Z,20.67
2019-04-21T14:03:39.680Z,20.17
2019-04-21T14:04:39.014Z,20.77
2019-04-21T14:05:40.187Z,19.29
2019-04-21T14:06:40.471Z,19.39
2019-04-21T14:07:38.848Z,19.89
2019-04-21T14:08:41.647Z,19.12
2019-04-21T14:09:49.042Z,19.34
2019-04-21T14:10:39.801Z,19.83
2019-04-21T14:11:38.621Z,19.43
2019-04-21T14:12:38.565Z,19.73
2019-04-21T14:13:38.622Z,19.04
2019-04-21T14:14:38.672Z,18.27
2019-04-21T14:15:38.397Z,18.37
2019-04-21T14:16:38.342Z,18.07
2019-04-21T14:17:39.198Z,20.51
2019-04-21T14:18:38.563Z,19.63
2019-04-21T14:19:39.335Z,20.68
2019-04-21T14:20:39.458Z,20.39